sensor_id;sensor_type;location;lat;lon;timestamp;pressure;altitude;pressure_sealevel;temperature;humidity
74578;BME280;63173;49.086;33.418;2022-12-01T00:00:33;102086.75;;;-0.33;61.98
74578;BME280;63173;49.086;33.418;2022-12-01T02:26:29;102028.44;;;-0.60;59.46
74578;BME280;63173;49.086;33.418;2022-12-01T02:31:39;102033.78;;;-0.52;59.47
74578;BME280;63173;49.086;33.418;2022-12-01T02:36:48;102036.84;;;-0.71;59.65
74578;BME280;63173;49.086;33.418;2022-12-01T02:39:22;102029.66;;;-0.70;60.82
74578;BME280;63173;49.086;33.418;2022-12-01T02:41:57;102034.28;;;-0.56;59.84
74578;BME280;63173;49.086;33.418;2022-12-01T02:44:31;102028.34;;;-0.74;60.20
74578;BME280;63173;49.086;33.418;2022-12-01T02:47:03;102033.34;;;-0.79;59.93
74578;BME280;63173;49.086;33.418;2022-12-01T02:49:39;102029.78;;;-0.64;59.53
74578;BME280;63173;49.086;33.418;2022-12-01T02:52:05;102034.66;;;-0.75;60.19
74578;BME280;63173;49.086;33.418;2022-12-01T02:54:32;102033.16;;;-0.70;60.19
74578;BME280;63173;49.086;33.418;2022-12-01T02:56:58;102033.88;;;-0.84;60.29
74578;BME280;63173;49.086;33.418;2022-12-01T02:59:24;102028.34;;;-0.74;60.54
74578;BME280;63173;49.086;33.418;2022-12-01T03:12:58;102032.16;;;-0.69;59.34
74578;BME280;63173;49.086;33.418;2022-12-01T03:21:00;102026.03;;;-0.85;60.75
74578;BME280;63173;49.086;33.418;2022-12-01T03:23:29;102021.69;;;-0.86;59.58
74578;BME280;63173;49.086;33.418;2022-12-01T03:25:55;102024.53;;;-0.80;60.55
74578;BME280;63173;49.086;33.418;2022-12-01T03:28:26;102017.84;;;-0.84;59.13
74578;BME280;63173;49.086;33.418;2022-12-01T03:30:57;102025.31;;;-0.63;59.34
74578;BME280;63173;49.086;33.418;2022-12-01T03:33:31;102015.50;;;-0.79;59.83
74578;BME280;63173;49.086;33.418;2022-12-01T03:36:09;102021.81;;;-0.72;58.59
74578;BME280;63173;49.086;33.418;2022-12-01T03:38:42;102026.53;;;-0.82;59.98
74578;BME280;63173;49.086;33.418;2022-12-01T03:41:18;102025.50;;;-0.73;59.44
74578;BME280;63173;49.086;33.418;2022-12-01T03:43:52;102026.16;;;-0.71;58.98
74578;BME280;63173;49.086;33.418;2022-12-01T03:49:08;102038.34;;;-0.68;59.17
74578;BME280;63173;49.086;33.418;2022-12-01T03:51:38;102045.16;;;-0.66;59.22
74578;BME280;63173;49.086;33.418;2022-12-01T03:54:23;102038.53;;;-0.78;59.48
74578;BME280;63173;49.086;33.418;2022-12-01T03:56:55;102045.03;;;-0.80;59.35
74578;BME280;63173;49.086;33.418;2022-12-01T03:59:25;102040.84;;;-0.83;59.27
74578;BME280;63173;49.086;33.418;2022-12-01T04:01:51;102037.66;;;-0.70;59.29
74578;BME280;63173;49.086;33.418;2022-12-01T04:04:17;102034.19;;;-0.79;58.98
74578;BME280;63173;49.086;33.418;2022-12-01T04:06:48;102050.53;;;-0.82;59.95
74578;BME280;63173;49.086;33.418;2022-12-01T04:09:15;102042.66;;;-0.75;59.64
74578;BME280;63173;49.086;33.418;2022-12-01T04:11:41;102037.03;;;-0.88;58.93
74578;BME280;63173;49.086;33.418;2022-12-01T04:14:25;102040.19;;;-0.77;59.24
74578;BME280;63173;49.086;33.418;2022-12-01T04:16:50;102030.00;;;-0.73;59.56
74578;BME280;63173;49.086;33.418;2022-12-01T04:19:16;102042.72;;;-0.83;60.08
74578;BME280;63173;49.086;33.418;2022-12-01T04:21:41;102041.50;;;-0.73;60.36
74578;BME280;63173;49.086;33.418;2022-12-01T04:24:07;102034.72;;;-0.83;60.03
74578;BME280;63173;49.086;33.418;2022-12-01T04:26:34;102039.34;;;-0.77;60.11
74578;BME280;63173;49.086;33.418;2022-12-01T04:29:03;102034.84;;;-0.85;60.33
74578;BME280;63173;49.086;33.418;2022-12-01T04:31:28;102026.84;;;-0.85;59.02
74578;BME280;63173;49.086;33.418;2022-12-01T04:33:55;102027.19;;;-0.80;59.73
74578;BME280;63173;49.086;33.418;2022-12-01T04:36:25;102029.88;;;-0.88;60.40
74578;BME280;63173;49.086;33.418;2022-12-01T04:38:50;102035.00;;;-0.70;59.97
74578;BME280;63173;49.086;33.418;2022-12-01T04:41:16;102033.34;;;-0.79;59.99
74578;BME280;63173;49.086;33.418;2022-12-01T04:43:41;102032.66;;;-0.73;59.50
74578;BME280;63173;49.086;33.418;2022-12-01T04:46:07;102029.78;;;-0.64;58.81
74578;BME280;63173;49.086;33.418;2022-12-01T04:48:37;102034.84;;;-0.77;59.59
74578;BME280;63173;49.086;33.418;2022-12-01T04:51:05;102037.34;;;-0.75;59.83
74578;BME280;63173;49.086;33.418;2022-12-01T04:53:31;102040.16;;;-0.69;60.25
74578;BME280;63173;49.086;33.418;2022-12-01T04:55:58;102035.31;;;-0.73;60.38
74578;BME280;63173;49.086;33.418;2022-12-01T04:58:25;102034.72;;;-0.83;61.05
74578;BME280;63173;49.086;33.418;2022-12-01T05:00:50;102028.72;;;-0.85;60.88
74578;BME280;63173;49.086;33.418;2022-12-01T05:03:15;102039.69;;;-0.80;60.83
74578;BME280;63173;49.086;33.418;2022-12-01T05:05:41;102035.03;;;-0.86;61.03
74578;BME280;63173;49.086;33.418;2022-12-01T05:08:07;102032.91;;;-0.91;61.30
74578;BME280;63173;49.086;33.418;2022-12-01T05:10:36;102043.19;;;-0.80;61.61
74578;BME280;63173;49.086;33.418;2022-12-01T05:13:03;102040.72;;;-0.81;60.36
74578;BME280;63173;49.086;33.418;2022-12-01T05:15:29;102049.53;;;-0.81;60.24
74578;BME280;63173;49.086;33.418;2022-12-01T05:17:54;102034.72;;;-0.83;60.84
74578;BME280;63173;49.086;33.418;2022-12-01T05:20:22;102043.22;;;-0.88;60.79
74578;BME280;63173;49.086;33.418;2022-12-01T05:23:09;102043.03;;;-0.78;60.64
74578;BME280;63173;49.086;33.418;2022-12-01T05:25:35;102044.66;;;-0.69;61.78
74578;BME280;63173;49.086;33.418;2022-12-01T05:28:02;102049.19;;;-0.78;62.02
74578;BME280;63173;49.086;33.418;2022-12-01T05:30:28;102047.03;;;-0.90;61.63
74578;BME280;63173;49.086;33.418;2022-12-01T05:32:54;102057.88;;;-0.76;61.07
74578;BME280;63173;49.086;33.418;2022-12-01T05:35:19;102054.66;;;-0.71;62.09
74578;BME280;63173;49.086;33.418;2022-12-01T05:37:44;102056.91;;;-0.91;61.79
74578;BME280;63173;49.086;33.418;2022-12-01T05:40:10;102051.53;;;-0.83;61.76
74578;BME280;63173;49.086;33.418;2022-12-01T05:42:36;102047.50;;;-0.71;61.74
74578;BME280;63173;49.086;33.418;2022-12-01T05:45:01;102054.84;;;-0.73;62.63
74578;BME280;63173;49.086;33.418;2022-12-01T05:47:27;102058.53;;;-0.74;61.69
74578;BME280;63173;49.086;33.418;2022-12-01T05:49:52;102054.19;;;-0.75;62.98
74578;BME280;63173;49.086;33.418;2022-12-01T05:52:18;102046.81;;;-0.57;62.24
74578;BME280;63173;49.086;33.418;2022-12-01T05:54:43;102052.34;;;-0.66;62.50
74578;BME280;63173;49.086;33.418;2022-12-01T05:57:08;102061.13;;;-0.58;62.58
74578;BME280;63173;49.086;33.418;2022-12-01T05:59:34;102056.94;;;-0.44;61.69
74578;BME280;63173;49.086;33.418;2022-12-01T06:01:59;102059.44;;;-0.51;62.29
74578;BME280;63173;49.086;33.418;2022-12-01T06:04:25;102059.81;;;-0.70;63.15
74578;BME280;63173;49.086;33.418;2022-12-01T23:07:41;101878.41;;;-0.47;53.20
74578;BME280;63173;49.086;33.418;2022-12-01T23:10:19;101877.47;;;-0.54;53.28
74578;BME280;63173;49.086;33.418;2022-12-01T23:12:46;101878.94;;;-0.44;52.73
74578;BME280;63173;49.086;33.418;2022-12-01T23:15:33;101877.44;;;-0.46;52.66
74578;BME280;63173;49.086;33.418;2022-12-01T23:18:13;101877.00;;;-0.58;52.07
74578;BME280;63173;49.086;33.418;2022-12-01T23:20:41;101873.41;;;-0.42;53.17
74578;BME280;63173;49.086;33.418;2022-12-01T23:23:13;101874.56;;;-0.45;52.96
74578;BME280;63173;49.086;33.418;2022-12-01T23:25:41;101876.81;;;-0.56;52.87
74578;BME280;63173;49.086;33.418;2022-12-01T23:28:08;101879.25;;;-0.47;52.10
74578;BME280;63173;49.086;33.418;2022-12-01T23:30:36;101871.91;;;-0.75;53.65
74578;BME280;63173;49.086;33.418;2022-12-01T23:35:28;101878.78;;;-0.81;53.02
74578;BME280;63173;49.086;33.418;2022-12-01T23:37:55;101879.25;;;-0.77;53.32
74578;BME280;63173;49.086;33.418;2022-12-01T23:40:32;101877.31;;;-0.83;53.88
74578;BME280;63173;49.086;33.418;2022-12-01T23:43:24;101885.44;;;-0.77;53.85
74578;BME280;63173;49.086;33.418;2022-12-01T23:46:06;101882.47;;;-0.82;54.30
74578;BME280;63173;49.086;33.418;2022-12-01T23:48:41;101877.97;;;-0.81;53.99
74578;BME280;63173;49.086;33.418;2022-12-01T23:51:30;101882.28;;;-0.80;53.74
74578;BME280;63173;49.086;33.418;2022-12-01T23:53:59;101884.13;;;-0.81;52.96
74578;BME280;63173;49.086;33.418;2022-12-01T23:56:26;101880.66;;;-0.81;52.90
74578;BME280;63173;49.086;33.418;2022-12-01T23:58:53;101887.47;;;-0.87;53.79
